Time;durP1;ratioP1;P1;durP2;ratioP2;P2;SDS_P1;SDS_P2;PMS_P1;PMS_P2;Temp;Humidity;BMP_temperature;BMP_pressure;BME280_temperature;BME280_humidity;BME280_pressure;Samples;Min_cycle;Max_cycle;Signal;HPM_P1;HPM_P2
2021/12/24 00:01:20;;;;;;;;;30.67;27.33;;;;;9.09;98.95;100539.56;5060372;28;45296;-77
2021/12/24 00:03:58;;;;;;;;;;;;;;;;;;;;;
2021/12/24 00:06:35;;;;;;;;;27.67;24.00;;;;;9.12;98.06;100526.34;5058742;28;75157;-78
2021/12/24 00:09:05;;;;;;;;;30.00;24.33;;;;;9.13;97.60;100533.34;5059510;28;45224;-79
2021/12/24 00:11:32;;;;;;;;;26.33;21.33;;;;;9.02;97.75;100512.56;5059609;28;45541;-78
2021/12/24 00:13:59;;;;;;;;;27.67;24.00;;;;;9.02;98.23;100507.31;5059530;28;45502;-78
2021/12/24 00:16:40;;;;;;;;;28.67;26.00;;;;;9.01;98.34;100502.94;5059345;28;47085;-77
2021/12/24 00:19:26;;;;;;;;;28.00;22.33;;;;;9.05;98.04;100496.75;5059189;28;45465;-79
2021/12/24 00:35:36;;;;;;;;;27.00;21.67;;;;;9.25;98.59;100519.97;5059104;28;45764;-77
2021/12/24 00:38:05;;;;;;;;;24.67;20.00;;;;;9.25;98.49;100517.34;5058785;28;46186;-77
2021/12/24 00:40:35;;;;;;;;;24.33;21.00;;;;;9.23;98.80;100522.59;5059218;28;45278;-77
2021/12/24 00:43:01;;;;;;;;;21.67;21.67;;;;;9.31;98.26;100522.47;5058920;28;45399;-77
2021/12/24 00:45:31;;;;;;;;;23.33;23.33;;;;;9.34;98.95;100521.53;5059123;28;45389;-79
2021/12/24 00:47:58;;;;;;;;;30.67;22.33;;;;;9.34;98.10;100511.88;5058333;28;45454;-76
2021/12/24 00:50:28;;;;;;;;;28.33;24.00;;;;;9.37;98.70;100522.31;5058857;28;45417;-78
2021/12/24 00:53:02;;;;;;;;;21.33;20.00;;;;;9.37;98.01;100517.06;5059019;28;45462;-79
2021/12/24 00:55:31;;;;;;;;;22.00;17.67;;;;;9.31;98.70;100506.69;5059497;28;45532;-77
2021/12/24 00:58:03;;;;;;;;;28.00;21.33;;;;;9.30;98.68;100496.22;5058620;28;45508;-78
2021/12/24 01:00:38;;;;;;;;;20.67;20.33;;;;;9.36;98.58;100512.69;5058580;28;45327;-78
2021/12/24 01:03:14;;;;;;;;;22.00;17.67;;;;;9.34;98.49;100500.53;5058704;28;45520;-78
2021/12/24 01:05:49;;;;;;;;;29.00;23.00;;;;;9.34;99.06;100514.50;5059300;28;45551;-79
2021/12/24 01:08:23;;;;;;;;;30.67;24.67;;;;;9.27;98.74;100496.28;5058757;28;45447;-79
2021/12/24 01:10:56;;;;;;;;;26.00;20.00;;;;;9.34;98.93;100500.53;5058017;28;45510;-79
2021/12/24 01:13:24;;;;;;;;;32.00;25.00;;;;;9.30;99.33;100507.59;5059145;28;45481;-77
2021/12/24 01:16:03;;;;;;;;;24.00;22.00;;;;;9.28;98.81;100501.50;5057882;28;45837;-78
2021/12/24 01:23:50;;;;;;;;;24.00;18.67;;;;;9.00;99.61;100469.69;5058678;28;45418;-79
2021/12/24 01:26:40;;;;;;;;;23.33;22.00;;;;;9.07;99.73;100490.53;5058704;28;45505;-78
2021/12/24 01:44:58;;;;;;;;;28.67;27.67;;;;;8.74;100.00;100449.22;5058544;28;45423;-77
2021/12/24 01:47:24;;;;;;;;;29.00;22.00;;;;;8.95;100.00;100488.19;5058520;28;45256;-77
2021/12/24 01:49:50;;;;;;;;;22.67;20.00;;;;;8.70;100.00;100441.41;5057974;28;46866;-76
2021/12/24 01:52:16;;;;;;;;;29.00;23.00;;;;;8.88;100.00;100476.91;5058527;28;45313;-76
2021/12/24 01:54:45;;;;;;;;;27.00;25.00;;;;;8.88;100.00;100478.69;5058521;28;45412;-77
2021/12/24 01:57:14;;;;;;;;;21.00;21.00;;;;;8.89;100.00;100480.44;5058277;28;45455;-77
2021/12/24 01:59:41;;;;;;;;;24.67;20.33;;;;;8.92;100.00;100490.88;5058102;28;46377;-77
2021/12/24 02:02:07;;;;;;;;;25.33;22.33;;;;;8.92;99.94;100490.88;5057926;28;45320;-80
2021/12/24 02:04:33;;;;;;;;;26.67;21.67;;;;;8.91;100.00;100488.28;5058046;28;45315;-77
2021/12/24 02:06:58;;;;;;;;;28.67;23.33;;;;;8.90;100.00;100492.63;5058235;28;45425;-77
2021/12/24 02:09:24;;;;;;;;;29.67;21.00;;;;;8.92;100.00;100493.50;5057894;28;46088;-77
2021/12/24 02:11:49;;;;;;;;;24.67;22.67;;;;;8.71;99.77;100456.28;5057802;28;45375;-77
2021/12/24 02:14:20;;;;;;;;;22.00;19.67;;;;;8.87;100.00;100475.22;5057883;28;45380;-77
2021/12/24 02:30:18;;;;;;;;;24.33;21.67;;;;;8.81;99.93;100474.47;5055573;28;45867;-77
2021/12/24 02:32:43;;;;;;;;;25.00;21.00;;;;;8.81;100.00;100490.22;5055583;28;45404;-77
2021/12/24 02:35:10;;;;;;;;;23.00;18.00;;;;;8.81;100.00;100488.44;5055312;28;45477;-78
2021/12/24 02:37:36;;;;;;;;;24.00;16.00;;;;;8.81;100.00;100483.19;5038832;28;45469;-77
2021/12/24 02:40:04;;;;;;;;;24.67;19.00;;;;;8.79;100.00;100474.50;5055493;28;46126;-77
2021/12/24 02:42:30;;;;;;;;;22.33;18.33;;;;;8.83;100.00;100477.91;5054707;28;45554;-77
2021/12/24 02:44:56;;;;;;;;;25.67;22.00;;;;;8.87;100.00;100482.22;5055272;28;45357;-76
2021/12/24 02:55:06;;;;;;;;;25.00;21.33;;;;;8.76;100.00;100440.44;5055403;28;45482;-76
2021/12/24 02:57:34;;;;;;;;;26.67;24.33;;;;;9.05;100.00;100487.09;5055035;28;45270;-78
2021/12/24 03:00:02;;;;;;;;;24.33;20.00;;;;;9.07;100.00;100481.81;5054911;28;47114;-79
2021/12/24 03:02:30;;;;;;;;;29.00;23.00;;;;;9.10;100.00;100480.88;5041168;28;45371;-79
2021/12/24 03:04:56;;;;;;;;;21.33;20.00;;;;;9.06;100.00;100477.44;5037417;28;45318;-76
2021/12/24 03:07:21;;;;;;;;;23.33;22.00;;;;;9.13;100.00;100480.81;5037675;28;45333;-77
2021/12/24 03:09:47;;;;;;;;;23.33;19.33;;;;;9.12;100.00;100479.06;5036872;28;45793;-77
2021/12/24 03:12:12;;;;;;;;;24.00;20.00;;;;;9.12;99.80;100477.34;5049377;28;45178;-77
2021/12/24 03:14:38;;;;;;;;;24.00;21.67;;;;;9.03;99.70;100481.03;5055842;28;45320;-78
2021/12/24 03:17:09;;;;;;;;;23.00;20.00;;;;;9.02;100.00;100483.69;5057517;28;45384;-78
2021/12/24 03:19:34;;;;;;;;;31.00;24.00;;;;;8.94;100.00;100468.06;5057046;28;46186;-78
2021/12/24 03:24:38;;;;;;;;;26.33;22.67;;;;;8.92;100.00;100466.34;5056951;28;45279;-78
2021/12/24 03:27:08;;;;;;;;;32.33;23.00;;;;;8.89;100.00;100462.91;5057219;28;45372;-77
2021/12/24 03:29:34;;;;;;;;;26.33;19.33;;;;;8.83;100.00;100452.53;5056692;28;45743;-77
2021/12/24 03:32:00;;;;;;;;;26.33;23.00;;;;;8.67;99.41;100425.72;5057054;28;45348;-77
2021/12/24 03:34:25;;;;;;;;;26.33;21.33;;;;;8.86;99.67;100459.50;5058137;28;45818;-76
2021/12/24 03:36:51;;;;;;;;;31.33;25.67;;;;;8.78;99.98;100445.66;5060526;28;45309;-77
2021/12/24 03:39:17;;;;;;;;;20.33;15.00;;;;;8.82;100.00;100456.06;5060454;28;46198;-77
2021/12/24 03:41:43;;;;;;;;;23.67;21.00;;;;;8.82;100.00;100456.06;5060651;28;45248;-77
2021/12/24 03:44:12;;;;;;;;;29.00;22.33;;;;;8.80;100.00;100454.34;5060367;28;45362;-77
2021/12/24 03:47:06;;;;;;;;;29.67;26.67;;;;;8.84;100.00;100456.03;5060372;28;45370;-76
2021/12/24 03:52:15;;;;;;;;;34.33;27.67;;;;;8.77;100.00;100451.78;5059975;28;45470;-77
2021/12/24 03:54:59;;;;;;;;;27.00;24.33;;;;;8.76;100.00;100448.31;5060326;28;45272;-77
2021/12/24 03:57:33;;;;;;;;;35.00;31.00;;;;;8.84;100.00;100466.53;5060588;28;45237;-77
2021/12/24 04:00:06;;;;;;;;;26.00;23.33;;;;;8.84;100.00;100471.78;5060010;28;45546;-77
2021/12/24 04:02:32;;;;;;;;;31.67;23.33;;;;;8.82;100.00;100463.06;5059753;28;45249;-76
2021/12/24 04:04:57;;;;;;;;;30.00;23.67;;;;;8.74;100.00;100446.59;5060452;28;45167;-76
2021/12/24 04:07:25;;;;;;;;;25.00;20.67;;;;;8.74;100.00;100450.09;5060089;28;45370;-76
2021/12/24 04:10:04;;;;;;;;;26.67;26.00;;;;;8.77;100.00;100450.03;5060097;28;46757;-79
2021/12/24 04:12:29;;;;;;;;;34.67;25.67;;;;;8.73;100.00;100442.25;5060069;28;45374;-79
2021/12/24 04:14:55;;;;;;;;;23.33;21.00;;;;;8.52;100.00;100416.41;5060004;28;45458;-77
2021/12/24 04:17:21;;;;;;;;;30.33;28.33;;;;;8.67;100.00;100445.84;5060023;28;45479;-77
2021/12/24 04:25:15;;;;;;;;;38.33;29.00;;;;;8.51;100.00;100455.78;5059985;28;45458;-77
2021/12/24 04:27:40;;;;;;;;;29.33;24.67;;;;;8.50;100.00;100460.16;5060186;28;45361;-77
2021/12/24 04:30:18;;;;;;;;;27.67;20.00;;;;;8.50;100.00;100462.78;5059080;28;46014;-77
2021/12/24 04:35:41;;;;;;;;;30.33;24.67;;;;;8.48;100.00;100445.34;5059710;28;45324;-77
2021/12/24 04:51:28;;;;;;;;;23.33;19.00;;;;;8.64;100.00;100440.66;5059235;28;45719;-78
2021/12/24 05:02:15;;;;;;;;;31.33;24.00;;;;;8.48;99.31;100425.25;5058915;28;45333;-77
2021/12/24 05:04:50;;;;;;;;;28.00;20.67;;;;;8.50;100.00;100436.56;5059120;28;45420;-78
2021/12/24 05:10:09;;;;;;;;;30.33;22.33;;;;;8.44;99.84;100434.06;5056757;28;45491;-79
2021/12/24 05:12:35;;;;;;;;;23.67;21.00;;;;;8.46;100.00;100444.53;5056785;28;46545;-79
2021/12/24 05:15:11;;;;;;;;;24.33;21.00;;;;;8.44;99.94;100438.41;5056594;28;45420;-80
2021/12/24 05:22:59;;;;;;;;;29.33;20.00;;;;;8.13;100.00;100405.75;5056747;28;45826;-78
2021/12/24 05:25:24;;;;;;;;;26.33;16.67;;;;;8.31;100.00;100437.78;5056586;28;45421;-79
2021/12/24 05:27:55;;;;;;;;;22.67;20.00;;;;;8.31;100.00;100433.38;5039816;28;45911;-79
2021/12/24 05:30:21;;;;;;;;;15.00;12.00;;;;;8.28;100.00;100422.94;5056654;28;45761;-79
2021/12/24 05:32:46;;;;;;;;;22.00;17.00;;;;;8.05;100.00;100383.19;5056588;28;45418;-78
2021/12/24 05:35:12;;;;;;;;;23.67;20.00;;;;;8.24;100.00;100423.03;5056558;28;45356;-79
2021/12/24 05:37:37;;;;;;;;;17.33;15.00;;;;;8.16;100.00;100407.44;5056704;28;45285;-80
2021/12/24 05:40:04;;;;;;;;;25.33;20.33;;;;;8.18;100.00;100411.75;5056607;28;45406;-79
2021/12/24 05:42:31;;;;;;;;;24.00;20.00;;;;;8.24;100.00;100423.03;5056492;28;46169;-79
2021/12/24 05:45:03;;;;;;;;;22.33;18.00;;;;;8.19;100.00;100420.47;5055816;28;45468;-78
2021/12/24 05:47:29;;;;;;;;;33.00;22.00;;;;;8.18;100.00;100413.53;5058059;28;45563;-79
2021/12/24 05:49:54;;;;;;;;;27.00;21.00;;;;;8.08;100.00;100402.34;5058308;28;45403;-79
2021/12/24 05:52:20;;;;;;;;;25.67;21.00;;;;;8.21;100.00;100421.34;5058142;28;46303;-79
2021/12/24 05:54:46;;;;;;;;;26.33;20.33;;;;;8.13;100.00;100410.09;5058491;28;45261;-78
2021/12/24 05:57:12;;;;;;;;;24.00;20.00;;;;;8.19;100.00;100416.13;5058272;28;45318;-78
2021/12/24 05:59:37;;;;;;;;;23.33;19.00;;;;;8.11;100.00;100404.03;5058434;28;45451;-79
2021/12/24 06:02:03;;;;;;;;;28.33;20.33;;;;;8.15;100.00;100413.59;5057864;28;45622;-76
2021/12/24 06:04:28;;;;;;;;;23.00;19.67;;;;;8.11;100.00;100414.53;5057835;28;45431;-78
2021/12/24 06:06:53;;;;;;;;;27.33;18.67;;;;;8.06;100.00;100417.25;5058343;28;45435;-79
2021/12/24 06:09:19;;;;;;;;;23.33;18.33;;;;;8.02;100.00;100419.03;5058405;28;45405;-79
2021/12/24 06:11:44;;;;;;;;;21.33;19.33;;;;;8.05;100.00;100422.50;5058228;28;47462;-78
2021/12/24 06:14:11;;;;;;;;;25.33;20.67;;;;;8.13;100.00;100434.59;5057894;28;45565;-79
2021/12/24 06:16:46;;;;;;;;;29.67;24.33;;;;;8.22;100.00;100437.94;5058390;28;45474;-79
2021/12/24 06:19:12;;;;;;;;;33.67;29.67;;;;;8.20;100.00;100440.56;5057871;28;45474;-76
2021/12/24 06:21:37;;;;;;;;;25.00;19.00;;;;;8.16;100.00;100425.78;5057699;28;46030;-77
2021/12/24 06:24:03;;;;;;;;;26.00;23.67;;;;;8.25;100.00;100430.88;5058064;28;45301;-77
2021/12/24 06:26:28;;;;;;;;;32.00;24.67;;;;;8.23;100.00;100430.03;5058103;28;45272;-76
2021/12/24 06:28:54;;;;;;;;;32.33;26.67;;;;;8.18;99.88;100429.25;5058210;28;45492;-75
2021/12/24 06:31:19;;;;;;;;;26.33;21.67;;;;;8.22;99.96;100433.56;5057723;28;45403;-80
2021/12/24 06:33:45;;;;;;;;;27.33;22.00;;;;;8.22;99.92;100444.06;5057127;28;45369;-71
2021/12/24 06:36:11;;;;;;;;;28.00;24.00;;;;;8.05;99.95;100425.13;5057816;28;45702;-76
2021/12/24 06:38:36;;;;;;;;;23.33;23.00;;;;;7.93;100.00;100397.34;5056025;28;45417;-78
2021/12/24 06:41:02;;;;;;;;;28.00;22.33;;;;;8.09;100.00;100430.28;5057158;28;46183;-69
2021/12/24 06:43:28;;;;;;;;;26.33;21.67;;;;;8.07;100.00;100423.34;5056982;28;45250;-70
2021/12/24 06:45:54;;;;;;;;;24.00;19.00;;;;;8.02;100.00;100426.06;5057591;28;45396;-70
2021/12/24 06:48:19;;;;;;;;;30.33;23.67;;;;;7.75;100.00;100386.28;5057341;28;45240;-70
2021/12/24 06:50:45;;;;;;;;;28.67;26.00;;;;;7.90;100.00;100414.03;5057525;28;45428;-70
2021/12/24 06:53:11;;;;;;;;;16.00;16.00;;;;;7.94;100.00;100427.94;5057371;28;45354;-69
2021/12/24 06:55:37;;;;;;;;;30.67;24.67;;;;;7.86;100.00;100422.81;5057177;28;45376;-73
2021/12/24 06:58:03;;;;;;;;;28.00;27.33;;;;;7.87;100.00;100419.31;5047141;28;45507;-73
2021/12/24 07:00:28;;;;;;;;;41.67;26.67;;;;;7.87;100.00;100423.69;5048578;28;45542;-69
2021/12/24 07:02:54;;;;;;;;;29.00;25.67;;;;;7.87;100.00;100429.81;5036842;28;45646;-70
2021/12/24 07:05:20;;;;;;;;;29.33;26.00;;;;;7.85;100.00;100440.28;5046005;28;45363;-73
2021/12/24 07:07:45;;;;;;;;;36.33;27.67;;;;;7.82;100.00;100445.59;5057297;28;45431;-70
2021/12/24 07:10:11;;;;;;;;;30.00;26.33;;;;;7.79;100.00;100439.53;5055726;28;45804;-72
2021/12/24 07:12:36;;;;;;;;;37.67;30.67;;;;;7.83;100.00;100446.47;5057064;28;45852;-71
2021/12/24 07:15:03;;;;;;;;;32.67;28.00;;;;;7.85;100.00;100455.16;5056746;28;45517;-72
2021/12/24 07:17:28;;;;;;;;;33.67;30.33;;;;;7.60;100.00;100411.00;5057915;28;45438;-69
2021/12/24 07:19:53;;;;;;;;;31.00;25.67;;;;;7.89;100.00;100448.13;5056903;28;46168;-77
2021/12/24 07:22:19;;;;;;;;;38.67;31.33;;;;;7.85;100.00;100442.06;5056749;28;45391;-71
2021/12/24 07:24:45;;;;;;;;;40.00;31.00;;;;;7.92;100.00;100446.31;5056866;28;45312;-73
2021/12/24 07:27:11;;;;;;;;;35.33;30.33;;;;;7.92;100.00;100442.81;5056928;28;45387;-75
2021/12/24 07:29:37;;;;;;;;;32.00;29.67;;;;;7.84;100.00;100427.22;5056597;28;45362;-70
2021/12/24 07:32:04;;;;;;;;;27.33;24.00;;;;;7.81;100.00;100419.41;5056377;28;45402;-71
2021/12/24 07:34:29;;;;;;;;;33.33;26.67;;;;;7.87;100.00;100432.44;5056746;28;45324;-77
2021/12/24 07:36:55;;;;;;;;;37.67;29.00;;;;;7.82;99.76;100435.09;5056485;28;45391;-74
2021/12/24 07:39:21;;;;;;;;;38.33;31.00;;;;;7.77;99.09;100420.34;5057013;28;46271;-74
2021/12/24 07:41:47;;;;;;;;;42.33;34.00;;;;;7.77;99.36;100430.81;5056595;28;45392;-76
2021/12/24 07:44:13;;;;;;;;;31.67;26.00;;;;;7.66;100.00;100418.75;5056890;28;45466;-75
2021/12/24 07:46:47;;;;;;;;;32.67;27.00;;;;;7.69;99.98;100419.63;5056721;28;45558;-76
2021/12/24 07:49:30;;;;;;;;;43.33;32.67;;;;;7.66;99.82;100413.50;5056334;28;46650;-77
2021/12/24 07:52:08;;;;;;;;;37.67;31.00;;;;;7.66;99.87;100410.91;5056656;28;45345;-75
2021/12/24 07:54:43;;;;;;;;;35.00;28.00;;;;;7.62;99.61;100410.97;5056656;28;45421;-70
2021/12/24 07:57:10;;;;;;;;;33.33;28.67;;;;;7.62;99.47;100410.97;5056636;28;45628;-74
2021/12/24 07:59:37;;;;;;;;;32.33;28.67;;;;;7.62;100.00;100413.59;5056660;28;47085;-74
2021/12/24 08:02:06;;;;;;;;;85.75;69.25;;;;;7.62;99.85;100417.09;5056343;28;45301;-74
2021/12/24 08:04:31;;;;;;;;;35.67;28.67;;;;;7.61;100.00;100415.38;5055943;28;45217;-73
2021/12/24 08:07:00;;;;;;;;;45.67;34.33;;;;;7.62;99.85;100421.47;5055728;28;45417;-73
2021/12/24 08:09:25;;;;;;;;;29.33;25.33;;;;;7.57;100.00;100416.28;5056079;28;46656;-74
2021/12/24 08:11:51;;;;;;;;;28.33;27.00;;;;;7.64;100.00;100428.41;5056456;28;45407;-74
2021/12/24 08:14:16;;;;;;;;;31.33;27.67;;;;;7.56;99.43;100406.69;5056843;28;45289;-75
2021/12/24 08:16:43;;;;;;;;;26.33;23.33;;;;;7.62;99.61;100410.97;5056527;28;45458;-74
2021/12/24 08:19:09;;;;;;;;;33.00;25.00;;;;;7.63;100.00;100416.19;5056393;28;47217;-73
2021/12/24 08:21:34;;;;;;;;;30.00;28.67;;;;;7.63;100.00;100434.53;5058277;28;45426;-72
2021/12/24 08:24:00;;;;;;;;;24.67;21.00;;;;;7.61;100.00;100430.19;5059387;28;45446;-72
2021/12/24 08:26:26;;;;;;;;;43.33;30.33;;;;;7.62;100.00;100424.97;5060126;28;45218;-73
2021/12/24 08:28:51;;;;;;;;;43.00;31.33;;;;;7.74;100.00;100436.13;5059394;28;46969;-72
2021/12/24 08:31:17;;;;;;;;;29.33;26.67;;;;;7.78;100.00;100437.81;5059514;28;45470;-73
2021/12/24 08:33:43;;;;;;;;;41.33;36.00;;;;;7.87;100.00;100432.44;5059629;28;45360;-72
2021/12/24 08:36:09;;;;;;;;;54.33;43.33;;;;;7.91;100.00;100417.50;5059437;28;45530;-73
2021/12/24 08:38:34;;;;;;;;;38.33;30.33;;;;;7.79;100.00;100382.72;5059305;28;46730;-73
2021/12/24 08:41:00;;;;;;;;;36.33;31.67;;;;;8.07;100.00;100413.69;5059198;28;45412;-73
2021/12/24 08:43:26;;;;;;;;;30.67;25.00;;;;;8.23;100.00;100437.03;5057431;28;45451;-72
2021/12/24 08:45:51;;;;;;;;;29.00;25.00;;;;;8.27;100.00;100421.22;5057592;28;45522;-73
2021/12/24 08:48:17;;;;;;;;;42.00;33.33;;;;;8.33;99.41;100417.63;5058536;28;46619;-76
2021/12/24 08:50:44;;;;;;;;;41.67;30.33;;;;;8.31;99.30;100419.41;5058409;28;45223;-82
2021/12/24 08:53:11;;;;;;;;;35.67;33.67;;;;;8.39;98.97;100427.97;5059024;28;45293;-81
2021/12/24 08:55:36;;;;;;;;;38.00;26.67;;;;;8.44;98.66;100435.78;5057957;28;45408;-82
2021/12/24 08:58:02;;;;;;;;;33.33;28.33;;;;;8.21;98.49;100392.50;5058676;28;46684;-84
2021/12/24 09:00:28;;;;;;;;;41.00;33.67;;;;;8.46;98.74;100436.66;5058709;28;45403;-84
2021/12/24 09:02:53;;;;;;;;;34.00;29.00;;;;;8.22;98.79;100394.22;5059167;28;45401;-84
2021/12/24 09:05:19;;;;;;;;;32.00;29.67;;;;;8.43;98.53;100413.06;5059282;28;45448;-83
2021/12/24 09:07:44;;;;;;;;;40.00;34.33;;;;;8.54;98.68;100414.63;5059121;28;45388;-84
2021/12/24 09:10:11;;;;;;;;;44.00;35.00;;;;;8.70;98.02;100427.44;5058722;28;45406;-83
2021/12/24 09:12:37;;;;;;;;;34.33;28.00;;;;;8.78;97.80;100416.78;5059015;28;45458;-81
2021/12/24 09:15:04;;;;;;;;;36.00;27.33;;;;;8.87;96.93;100416.56;5058917;28;45366;-86
2021/12/24 09:17:30;;;;;;;;;43.33;37.00;;;;;8.88;96.93;100411.28;5059143;28;46056;-85
2021/12/24 09:19:57;;;;;;;;;42.00;29.67;;;;;9.00;96.52;100415.44;5059289;28;45284;-86
2021/12/24 09:22:29;;;;;;;;;32.67;29.33;;;;;9.01;95.96;100403.16;5058995;28;45357;-86
2021/12/24 09:24:56;;;;;;;;;36.00;31.00;;;;;9.04;96.17;100396.06;5059260;28;45243;-81
2021/12/24 09:27:21;;;;;;;;;40.00;29.00;;;;;9.10;96.17;100396.84;5058026;28;46410;-80
2021/12/24 09:29:46;;;;;;;;;51.00;36.67;;;;;8.81;95.68;100340.56;5058196;28;45316;-85
2021/12/24 09:32:12;;;;;;;;;39.67;34.00;;;;;9.14;95.98;100393.25;5058174;28;45451;-88
2021/12/24 09:34:38;;;;;;;;;35.00;26.67;;;;;9.21;95.49;100389.59;5058628;28;45320;-84
2021/12/24 09:37:05;;;;;;;;;38.00;33.67;;;;;9.33;95.30;100399.78;5057963;28;46609;-83
2021/12/24 09:39:31;;;;;;;;;33.00;29.33;;;;;9.39;95.15;100394.38;5058741;28;45728;-82
2021/12/24 09:41:59;;;;;;;;;42.00;35.67;;;;;9.57;93.65;100398.34;5058647;28;45377;-81
2021/12/24 09:44:25;;;;;;;;;43.00;33.33;;;;;9.66;93.37;100385.91;5058494;28;45377;-82
2021/12/24 09:46:51;;;;;;;;;32.00;28.33;;;;;9.86;92.21;100391.50;5057757;28;45449;-81
2021/12/24 09:49:17;;;;;;;;;58.00;47.00;;;;;9.94;91.01;100392.16;5057420;28;45389;-82
2021/12/24 09:51:47;;;;;;;;;44.33;35.00;;;;;9.97;92.40;100393.00;5058266;28;45502;-79
2021/12/24 09:54:19;;;;;;;;;56.33;44.67;;;;;9.91;91.95;100388.75;5058153;28;45529;-81
2021/12/24 09:56:45;;;;;;;;;43.00;35.67;;;;;9.89;91.28;100385.28;5057844;28;46578;-77
2021/12/24 09:59:12;;;;;;;;;35.67;32.67;;;;;9.83;91.55;100391.59;5058333;28;45387;-77
2021/12/24 10:02:14;;;;;;;;;35.67;28.33;;;;;9.90;90.88;100398.44;5058296;28;45247;-80
2021/12/24 10:04:40;;;;;;;;;38.00;32.00;;;;;9.97;90.74;100390.38;5057551;28;45427;-80
2021/12/24 10:07:08;;;;;;;;;35.00;26.67;;;;;9.92;90.91;100393.13;5057893;28;45383;-81
2021/12/24 10:09:45;;;;;;;;;32.33;28.67;;;;;10.01;91.25;100403.41;5058096;28;45300;-79
2021/12/24 10:12:15;;;;;;;;;34.33;30.33;;;;;10.16;90.72;100404.75;5058023;28;45266;-79
2021/12/24 10:14:53;;;;;;;;;37.00;33.00;;;;;10.25;89.96;100396.63;5058033;28;45475;-79
2021/12/24 10:17:22;;;;;;;;;38.33;32.67;;;;;10.31;89.45;100400.88;5057302;28;46109;-79
2021/12/24 10:19:55;;;;;;;;;35.33;32.67;;;;;10.31;90.08;100407.88;5057163;28;45444;-80
2021/12/24 10:22:21;;;;;;;;;42.33;28.00;;;;;10.26;89.91;100408.00;5058067;28;45364;-79
2021/12/24 10:24:59;;;;;;;;;33.00;29.67;;;;;10.23;90.39;100408.94;5058123;28;45377;-79
2021/12/24 10:27:29;;;;;;;;;35.67;26.33;;;;;10.14;90.09;100401.31;5057445;28;46110;-80
2021/12/24 10:29:54;;;;;;;;;40.33;34.00;;;;;10.14;90.17;100408.31;5057194;28;45439;-80
2021/12/24 10:32:20;;;;;;;;;40.67;33.00;;;;;9.85;90.01;100366.13;5057444;28;45344;-80
2021/12/24 10:34:46;;;;;;;;;39.00;33.33;;;;;9.99;90.20;100401.69;5057888;28;45522;-80
2021/12/24 10:37:18;;;;;;;;;39.33;29.67;;;;;9.99;90.79;100399.97;5054613;28;45693;-78
2021/12/24 10:39:54;;;;;;;;;35.00;28.00;;;;;9.98;90.92;100392.97;5052299;28;47030;-80
2021/12/24 10:42:35;;;;;;;;;52.67;42.00;;;;;10.02;91.41;100388.47;5047453;28;45984;-74
2021/12/24 10:45:03;;;;;;;;;47.67;38.67;;;;;10.05;91.35;100388.38;5032339;28;45492;-75
2021/12/24 10:47:33;;;;;;;;;36.33;32.00;;;;;10.12;90.95;100392.56;5041167;28;46383;-74
2021/12/24 10:50:07;;;;;;;;;44.33;33.67;;;;;10.14;90.90;100397.78;5053207;28;45625;-75
2021/12/24 10:55:26;;;;;;;;;31.33;27.33;;;;;10.11;90.46;100377.72;5041222;28;45529;-75
2021/12/24 10:57:53;;;;;;;;;36.33;32.33;;;;;10.10;90.08;100379.47;5033451;28;46389;-74
2021/12/24 11:00:25;;;;;;;;;37.67;34.33;;;;;9.93;90.57;100358.00;5047141;28;45829;-75
2021/12/24 11:02:59;;;;;;;;;39.67;35.33;;;;;9.97;90.69;100370.19;5046241;28;45843;-75
2021/12/24 11:05:40;;;;;;;;;39.00;32.00;;;;;9.86;91.16;100359.06;5053370;28;45613;-76
2021/12/24 11:08:12;;;;;;;;;38.33;33.00;;;;;9.86;91.27;100357.34;5063186;27;46281;-74
2021/12/24 11:10:41;;;;;;;;;46.33;37.00;;;;;9.85;91.39;100358.22;5051734;28;45491;-75
2021/12/24 11:13:13;;;;;;;;;41.00;34.67;;;;;9.83;92.28;100359.16;5045149;28;45677;-76
2021/12/24 11:15:45;;;;;;;;;31.00;26.00;;;;;9.86;91.73;100353.81;5052467;28;45566;-76
2021/12/24 11:18:20;;;;;;;;;30.33;27.67;;;;;9.89;91.83;100353.72;5052772;28;45963;-75
2021/12/24 11:20:55;;;;;;;;;50.00;36.33;;;;;9.89;91.70;100356.34;5050242;28;45832;-77
2021/12/24 11:23:24;;;;;;;;;43.33;32.33;;;;;9.91;91.93;100363.31;5052100;28;45814;-76
2021/12/24 11:25:56;;;;;;;;;47.00;35.00;;;;;9.95;92.23;100358.84;5053234;28;45534;-73
2021/12/24 11:28:24;;;;;;;;;34.67;28.33;;;;;9.93;91.92;100350.13;5046709;28;45464;-72
2021/12/24 11:30:54;;;;;;;;;28.00;25.67;;;;;10.03;91.43;100353.38;5067835;28;45545;-71
2021/12/24 11:33:27;;;;;;;;;32.67;29.67;;;;;10.02;91.22;100346.38;5051584;27;45561;-74
2021/12/24 11:35:54;;;;;;;;;34.33;27.67;;;;;10.02;91.30;100346.38;5039254;28;45427;-75
2021/12/24 11:38:36;;;;;;;;;33.33;30.33;;;;;9.98;91.31;100335.09;5042203;28;46837;-74
2021/12/24 11:41:04;;;;;;;;;38.00;33.33;;;;;10.01;91.60;100347.31;5050227;28;45954;-74
2021/12/24 11:43:35;;;;;;;;;37.33;35.00;;;;;10.01;91.60;100342.03;5049419;28;45501;-73
2021/12/24 11:46:04;;;;;;;;;35.33;31.33;;;;;10.02;91.67;100336.75;5041803;28;45431;-73
2021/12/24 11:48:32;;;;;;;;;42.00;35.67;;;;;10.04;91.80;100339.34;5049221;28;47147;-74
2021/12/24 11:51:00;;;;;;;;;43.67;31.67;;;;;10.07;92.06;100326.94;5050105;28;45490;-74
2021/12/24 11:53:27;;;;;;;;;35.00;32.33;;;;;10.10;92.04;100310.22;5052693;28;45599;-74
2021/12/24 11:55:53;;;;;;;;;40.33;35.67;;;;;10.25;91.81;100315.06;5053792;28;45558;-74
2021/12/24 11:58:26;;;;;;;;;74.50;54.75;;;;;10.41;91.21;100318.16;5054934;28;46651;-74
2021/12/24 12:00:55;;;;;;;;;45.33;33.33;;;;;10.55;90.53;100308.97;5056151;28;45488;-73
2021/12/24 12:03:45;;;;;;;;;44.00;35.33;;;;;10.67;90.14;100307.75;5055038;28;45387;-74
2021/12/24 12:06:16;;;;;;;;;42.67;34.00;;;;;10.82;89.54;100303.78;5056102;28;45573;-75
2021/12/24 12:08:44;;;;;;;;;27.67;25.67;;;;;10.89;89.40;100289.50;5056006;28;45499;-74
2021/12/24 12:11:24;;;;;;;;;44.33;33.00;;;;;10.92;88.89;100289.41;5055634;28;45589;-74
2021/12/24 12:14:02;;;;;;;;;37.67;33.00;;;;;10.92;88.50;100289.41;5055701;28;45855;-74
2021/12/24 12:16:47;;;;;;;;;30.33;28.33;;;;;10.91;88.26;100274.53;5055841;28;45725;-76
2021/12/24 12:22:17;;;;;;;;;44.00;35.33;;;;;10.83;88.68;100272.13;5012190;28;45500;-74
2021/12/24 12:24:59;;;;;;;;;43.67;35.00;;;;;10.79;89.17;100273.16;5012099;28;45538;-74
2021/12/24 12:27:37;;;;;;;;;35.00;32.33;;;;;10.74;88.98;100265.38;5018627;28;45467;-75
2021/12/24 12:30:26;;;;;;;;;35.67;25.67;;;;;10.84;88.89;100276.47;5018889;28;46337;-76
2021/12/24 12:33:02;;;;;;;;;33.67;31.67;;;;;10.91;88.78;100271.91;4993060;28;45873;-76
2021/12/24 12:36:02;;;;;;;;;35.00;28.67;;;;;10.96;88.48;100272.59;5001335;28;45833;-74
2021/12/24 12:38:36;;;;;;;;;35.00;31.67;;;;;10.93;88.23;100262.16;5011453;28;45968;-75
2021/12/24 12:41:25;;;;;;;;;40.33;30.67;;;;;10.93;88.70;100260.38;5012780;28;46395;-73
2021/12/24 12:43:53;;;;;;;;;43.33;32.00;;;;;10.89;88.33;100258.78;4999828;28;45556;-74
2021/12/24 12:46:26;;;;;;;;;37.00;32.33;;;;;10.86;88.90;100271.16;4993272;28;45359;-75
2021/12/24 12:48:53;;;;;;;;;32.67;28.00;;;;;10.88;88.46;100274.63;5004860;28;45728;-74
2021/12/24 12:51:21;;;;;;;;;37.00;29.00;;;;;10.92;88.59;100269.22;4992861;28;47324;-74
2021/12/24 12:53:48;;;;;;;;;29.67;27.67;;;;;10.92;88.23;100255.16;5002207;28;45449;-77
2021/12/24 12:56:27;;;;;;;;;40.67;32.33;;;;;11.02;88.49;100258.38;5012674;28;45851;-77
2021/12/24 12:59:06;;;;;;;;;41.67;28.67;;;;;11.05;87.70;100245.97;5034482;28;45948;-77
2021/12/24 13:01:34;;;;;;;;;32.00;26.67;;;;;11.03;87.68;100237.22;5040101;28;47358;-75
2021/12/24 13:04:00;;;;;;;;;29.33;26.00;;;;;11.03;87.20;100244.28;5044530;28;45445;-75
2021/12/24 13:06:46;;;;;;;;;32.67;26.00;;;;;10.97;87.69;100235.66;5054901;28;45478;-84
2021/12/24 13:09:19;;;;;;;;;41.00;31.67;;;;;10.92;87.96;100239.34;5055237;28;45814;-80